createdAt,value
2017-11-06T00:01:29.977Z,7.60
2017-11-06T00:03:58.233Z,6.20
2017-11-06T00:06:26.517Z,6.07
2017-11-06T00:08:54.773Z,6.80
2017-11-06T00:11:23.970Z,4.50
2017-11-06T00:13:52.994Z,7.33
2017-11-06T00:16:20.505Z,9.23
2017-11-06T00:18:48.027Z,7.50
2017-11-06T00:21:15.549Z,7.80
2017-11-06T00:23:43.817Z,7.90
2017-11-06T00:26:12.097Z,11.27
2017-11-06T00:28:40.366Z,5.30
2017-11-06T00:31:08.654Z,8.13
2017-11-06T00:33:37.858Z,8.57
2017-11-06T00:36:06.137Z,5.33
2017-11-06T00:38:33.653Z,7.53
2017-11-06T00:41:01.153Z,6.57
2017-11-06T00:43:28.723Z,4.57
2017-11-06T00:45:56.545Z,6.10
2017-11-06T00:48:25.381Z,7.57
2017-11-06T00:50:54.374Z,9.20
2017-11-06T00:53:22.267Z,5.03
2017-11-06T00:55:50.206Z,4.90
2017-11-06T00:58:20.119Z,5.17
2017-11-06T01:00:48.090Z,7.10
2017-11-06T01:03:15.953Z,5.33
2017-11-06T01:05:44.022Z,4.67
2017-11-06T01:08:12.917Z,5.47
2017-11-06T01:10:40.981Z,4.30
2017-11-06T01:13:09.052Z,4.30
2017-11-06T01:15:37.019Z,9.30
2017-11-06T01:18:06.086Z,4.13
2017-11-06T01:20:33.850Z,9.40
2017-11-06T01:23:01.845Z,4.47
2017-11-06T01:25:29.915Z,4.83
2017-11-06T01:27:57.779Z,6.23
2017-11-06T01:30:25.747Z,3.60
2017-11-06T01:32:54.639Z,4.30
2017-11-06T01:35:22.505Z,6.77
2017-11-06T01:37:50.291Z,4.23
2017-11-06T01:40:20.077Z,5.03
2017-11-06T01:42:48.044Z,5.03
2017-11-06T01:45:16.011Z,5.03
2017-11-06T01:47:43.675Z,5.03
2017-11-06T01:50:11.218Z,6.10
2017-11-06T01:52:39.140Z,8.73
2017-11-06T01:55:06.637Z,4.63
2017-11-06T01:57:38.096Z,4.40
2017-11-06T02:00:06.534Z,7.20
2017-11-06T02:02:34.793Z,4.47
2017-11-06T02:05:02.323Z,5.13
2017-11-06T02:07:29.832Z,6.37
2017-11-06T02:09:58.116Z,6.53
2017-11-06T02:12:26.374Z,10.70
2017-11-06T02:14:54.657Z,3.90
2017-11-06T02:17:22.970Z,9.83
2017-11-06T02:19:50.490Z,9.10
2017-11-06T02:22:18.753Z,18.10
2017-11-06T02:24:46.268Z,7.43
2017-11-06T02:27:13.770Z,5.90
2017-11-06T02:29:42.033Z,8.97
2017-11-06T02:32:09.559Z,11.67
2017-11-06T02:34:37.087Z,12.87
2017-11-06T02:37:04.586Z,17.60
2017-11-06T02:39:32.105Z,12.47
2017-11-06T02:41:59.603Z,6.53
2017-11-06T02:44:27.121Z,6.70
2017-11-06T02:46:55.586Z,11.93
2017-11-06T02:49:23.898Z,4.70
2017-11-06T02:51:51.417Z,9.87
2017-11-06T02:54:19.683Z,7.47
2017-11-06T02:56:47.941Z,7.83
2017-11-06T02:59:15.453Z,7.27
2017-11-06T03:01:42.954Z,4.70
2017-11-06T03:04:11.253Z,6.20
2017-11-06T03:06:40.490Z,3.47
2017-11-06T03:09:07.986Z,5.70
2017-11-06T03:11:35.506Z,9.63
2017-11-06T03:14:02.998Z,9.97
2017-11-06T03:16:31.470Z,4.73
2017-11-06T03:18:58.978Z,7.23
2017-11-06T03:21:26.476Z,6.37
2017-11-06T03:23:54.003Z,4.00
2017-11-06T03:26:21.502Z,8.00
2017-11-06T03:28:49.029Z,5.83
2017-11-06T03:31:16.522Z,5.60
2017-11-06T03:33:44.786Z,4.73
2017-11-06T03:36:13.813Z,5.50
2017-11-06T03:38:42.078Z,5.20
2017-11-06T03:41:10.361Z,5.93
2017-11-06T03:43:38.629Z,4.57
2017-11-06T03:46:07.845Z,5.07
2017-11-06T03:48:35.370Z,9.50
2017-11-06T03:51:05.325Z,7.60
2017-11-06T03:53:32.837Z,4.07
2017-11-06T03:56:00.339Z,6.53
2017-11-06T03:58:28.794Z,4.83
2017-11-06T04:00:57.082Z,4.63
2017-11-06T04:03:24.582Z,4.10
2017-11-06T04:05:52.098Z,3.80
2017-11-06T04:08:19.595Z,4.03
2017-11-06T04:10:47.110Z,4.17
2017-11-06T04:13:14.630Z,4.30
2017-11-06T04:15:42.150Z,3.47
2017-11-06T04:18:09.670Z,4.43
2017-11-06T04:20:37.934Z,3.83
2017-11-06T04:23:10.056Z,4.57
2017-11-06T04:25:37.558Z,3.83
2017-11-06T04:28:05.841Z,5.07
2017-11-06T04:30:34.106Z,3.73
2017-11-06T04:33:03.350Z,5.73
2017-11-06T04:35:30.862Z,4.70
2017-11-06T04:37:59.125Z,4.50
2017-11-06T04:40:28.145Z,6.73
2017-11-06T04:42:55.645Z,4.83
2017-11-06T04:45:23.161Z,4.50
2017-11-06T04:47:50.658Z,3.93
2017-11-06T04:50:18.159Z,3.50
2017-11-06T04:52:46.438Z,3.70
2017-11-06T04:55:14.700Z,5.17
2017-11-06T04:57:42.986Z,4.47
2017-11-06T05:00:11.252Z,4.30
2017-11-06T05:02:39.510Z,4.70
2017-11-06T05:05:07.045Z,3.57
2017-11-06T05:07:34.543Z,4.97
2017-11-06T05:10:02.834Z,4.70
2017-11-06T05:12:31.098Z,4.27
2017-11-06T05:14:59.358Z,3.57
2017-11-06T05:17:27.649Z,3.60
2017-11-06T05:19:55.909Z,4.00
2017-11-06T05:22:23.435Z,3.80
2017-11-06T05:24:50.929Z,4.33
2017-11-06T05:27:19.189Z,3.30
2017-11-06T05:29:46.710Z,3.43
2017-11-06T05:32:14.243Z,7.83
2017-11-06T05:34:42.510Z,3.50
2017-11-06T05:37:11.710Z,4.13
2017-11-06T05:39:39.244Z,3.67
2017-11-06T05:42:09.189Z,5.10
2017-11-06T05:44:36.687Z,4.13
2017-11-06T05:47:04.218Z,4.30
2017-11-06T05:49:31.714Z,5.53
2017-11-06T05:51:59.246Z,4.23
2017-11-06T05:54:26.745Z,4.23
2017-11-06T05:56:54.270Z,6.97
2017-11-06T05:59:21.775Z,3.47
2017-11-06T06:01:50.037Z,6.93
2017-11-06T06:04:18.323Z,4.00
2017-11-06T06:06:45.825Z,3.33
2017-11-06T06:09:13.346Z,3.60
2017-11-06T06:11:40.837Z,3.23
2017-11-06T06:14:08.410Z,6.40
2017-11-06T06:16:36.246Z,7.00
2017-11-06T06:19:04.623Z,4.80
2017-11-06T06:21:32.591Z,4.03
2017-11-06T06:24:01.687Z,3.90
2017-11-06T06:26:29.550Z,4.43
2017-11-06T06:28:58.440Z,5.67
2017-11-06T06:31:26.408Z,7.90
2017-11-06T06:33:54.477Z,11.23
2017-11-06T06:36:22.344Z,6.50
2017-11-06T06:38:50.412Z,4.30
2017-11-06T06:41:18.380Z,6.93
2017-11-06T06:43:46.413Z,5.03
2017-11-06T06:46:14.625Z,4.10
2017-11-06T06:48:44.135Z,7.27
2017-11-06T06:51:12.811Z,3.60
2017-11-06T06:53:40.779Z,3.10
2017-11-06T06:56:08.702Z,27.73
2017-11-06T06:58:37.534Z,44.50
2017-11-06T07:01:05.508Z,152.90
2017-11-06T07:03:34.186Z,223.70
2017-11-06T07:06:02.122Z,246.50
2017-11-06T07:08:31.052Z,208.77
2017-11-06T07:10:59.119Z,173.63
2017-11-06T07:13:27.188Z,124.97
2017-11-06T07:15:55.254Z,210.23
2017-11-06T07:18:23.426Z,172.70
2017-11-06T07:20:51.601Z,180.80
2017-11-06T07:23:20.594Z,129.97
2017-11-06T07:25:48.531Z,119.63
2017-11-06T07:28:17.446Z,115.70
2017-11-06T07:30:45.215Z,106.13
2017-11-06T07:33:12.783Z,114.23
2017-11-06T07:35:40.293Z,122.80
2017-11-06T07:38:10.542Z,104.50
2017-11-06T07:40:38.042Z,86.47
2017-11-06T07:43:07.062Z,104.57
2017-11-06T07:45:35.354Z,78.37
2017-11-06T07:48:02.885Z,103.40
2017-11-06T07:50:31.164Z,90.70
2017-11-06T07:53:01.423Z,92.03
2017-11-06T07:55:28.955Z,74.87
2017-11-06T07:57:57.270Z,64.87
2017-11-06T08:00:24.774Z,77.13
2017-11-06T08:02:53.074Z,66.77
2017-11-06T08:05:20.578Z,80.93
2017-11-06T08:07:48.087Z,78.50
2017-11-06T08:10:17.597Z,75.73
2017-11-06T08:12:45.103Z,47.03
2017-11-06T08:15:12.646Z,51.53
2017-11-06T08:17:40.154Z,66.40
2017-11-06T08:20:07.662Z,58.00
2017-11-06T08:22:35.195Z,50.77
2017-11-06T08:25:02.717Z,61.23
2017-11-06T08:27:31.010Z,43.83
2017-11-06T08:29:58.510Z,50.50
2017-11-06T08:32:26.009Z,35.93
2017-11-06T08:34:54.303Z,55.97
2017-11-06T08:37:21.806Z,41.60
2017-11-06T08:39:49.318Z,51.90
2017-11-06T08:42:16.852Z,41.20
2017-11-06T08:44:45.136Z,27.83
2017-11-06T08:47:14.399Z,37.73
2017-11-06T08:49:41.906Z,38.00
2017-11-06T08:52:09.414Z,42.70
2017-11-06T08:54:36.950Z,46.13
2017-11-06T08:57:04.450Z,38.93
2017-11-06T08:59:32.730Z,33.17
2017-11-06T09:02:01.002Z,42.77
2017-11-06T09:04:29.302Z,36.47
2017-11-06T09:06:56.805Z,30.87
2017-11-06T09:09:24.309Z,28.00
2017-11-06T09:11:51.834Z,25.70
2017-11-06T09:14:19.335Z,26.57
2017-11-06T09:16:46.858Z,24.00
2017-11-06T09:19:16.086Z,21.83
2017-11-06T09:21:43.618Z,25.77
2017-11-06T09:24:11.886Z,27.00
2017-11-06T09:26:40.154Z,25.03
2017-11-06T09:29:07.673Z,20.87
2017-11-06T09:31:35.166Z,20.93
2017-11-06T09:34:02.690Z,19.80
2017-11-06T09:36:32.938Z,24.60
2017-11-06T09:39:00.463Z,20.57
2017-11-06T09:41:27.993Z,19.00
2017-11-06T09:43:55.490Z,22.10
2017-11-06T09:46:23.014Z,22.10
2017-11-06T09:48:50.514Z,14.80
2017-11-06T09:51:20.481Z,24.40
2017-11-06T09:53:48.017Z,17.10
2017-11-06T09:56:16.281Z,16.67
2017-11-06T09:58:44.573Z,22.23
2017-11-06T10:01:12.838Z,20.53
2017-11-06T10:03:41.117Z,16.03
2017-11-06T10:06:09.414Z,14.93
2017-11-06T10:08:36.921Z,15.17
2017-11-06T10:11:04.446Z,11.03
2017-11-06T10:13:32.882Z,12.60
2017-11-06T10:16:01.154Z,14.53
2017-11-06T10:18:29.450Z,13.13
2017-11-06T10:20:57.910Z,11.17
2017-11-06T10:23:26.205Z,11.07
2017-11-06T10:25:53.706Z,13.37
2017-11-06T10:28:21.211Z,17.00
2017-11-06T10:30:49.489Z,18.73
2017-11-06T10:33:16.988Z,12.33
2017-11-06T10:35:44.532Z,13.77
2017-11-06T10:38:12.049Z,13.90
2017-11-06T10:40:40.318Z,9.63
2017-11-06T10:43:08.608Z,10.53
2017-11-06T10:45:36.101Z,8.13
2017-11-06T10:48:03.626Z,9.67
2017-11-06T10:50:31.139Z,10.73
2017-11-06T10:52:58.655Z,16.83
2017-11-06T10:55:26.194Z,10.43
2017-11-06T10:57:53.693Z,9.73
2017-11-06T11:00:23.170Z,13.60
2017-11-06T11:02:50.675Z,7.87
2017-11-06T11:05:18.178Z,6.33
2017-11-06T11:07:45.714Z,10.43
2017-11-06T11:10:13.986Z,7.03
2017-11-06T11:12:42.273Z,9.13
2017-11-06T11:15:10.534Z,7.10
2017-11-06T11:17:38.818Z,6.43
2017-11-06T11:20:07.115Z,8.10
2017-11-06T11:22:34.619Z,12.63
2017-11-06T11:25:02.137Z,6.90
2017-11-06T11:27:29.643Z,11.23
2017-11-06T11:29:57.149Z,8.83
2017-11-06T11:32:26.651Z,7.80
2017-11-06T11:34:54.149Z,7.40
2017-11-06T11:37:21.678Z,6.80
2017-11-06T11:39:49.183Z,10.53
2017-11-06T11:42:16.679Z,8.03
2017-11-06T11:44:44.205Z,10.47
2017-11-06T11:47:12.473Z,8.30
2017-11-06T11:49:40.762Z,4.27
2017-11-06T11:52:09.026Z,9.17
2017-11-06T11:54:37.294Z,7.63
2017-11-06T11:57:07.561Z,5.17
2017-11-06T11:59:35.079Z,6.00
2017-11-06T12:02:03.395Z,6.13
2017-11-06T12:04:30.895Z,7.03
2017-11-06T12:06:59.191Z,9.80
2017-11-06T12:09:27.490Z,5.53
2017-11-06T12:11:54.997Z,9.37
2017-11-06T12:14:22.526Z,5.70
2017-11-06T12:16:50.047Z,9.63
2017-11-06T12:19:18.370Z,9.30
2017-11-06T12:21:45.874Z,5.33
2017-11-06T12:24:14.141Z,6.80
2017-11-06T12:26:42.426Z,6.23
2017-11-06T12:29:11.652Z,5.67
2017-11-06T12:31:39.173Z,5.63
2017-11-06T12:34:08.397Z,5.00
2017-11-06T12:36:35.926Z,4.57
2017-11-06T12:39:04.202Z,4.70
2017-11-06T12:41:33.434Z,5.90
2017-11-06T12:44:00.966Z,4.67
2017-11-06T12:46:29.238Z,4.10
2017-11-06T12:48:57.521Z,4.23
2017-11-06T12:51:25.515Z,5.97
2017-11-06T12:53:53.022Z,5.57
2017-11-06T12:56:20.558Z,5.13
2017-11-06T12:58:49.013Z,5.73
2017-11-06T13:01:16.538Z,10.57
2017-11-06T13:03:44.061Z,4.97
2017-11-06T13:06:11.585Z,3.47
2017-11-06T13:08:39.098Z,4.97
2017-11-06T13:11:07.361Z,5.73
2017-11-06T13:13:34.885Z,5.33
2017-11-06T13:16:02.381Z,4.73
2017-11-06T13:18:30.670Z,4.30
2017-11-06T13:20:58.937Z,4.60
2017-11-06T13:23:27.207Z,4.10
2017-11-06T13:25:56.486Z,4.73
2017-11-06T13:28:23.986Z,4.07
2017-11-06T13:30:51.507Z,5.97
2017-11-06T13:33:19.002Z,4.47
2017-11-06T13:35:46.501Z,5.27
2017-11-06T13:38:14.028Z,4.60
2017-11-06T13:40:41.535Z,5.13
2017-11-06T13:43:09.067Z,3.13
2017-11-06T13:45:37.506Z,4.03
2017-11-06T13:48:05.026Z,5.10
2017-11-06T13:50:32.530Z,3.97
2017-11-06T13:53:00.055Z,4.20
2017-11-06T13:55:28.330Z,3.40
2017-11-06T13:57:58.574Z,4.13
2017-11-06T14:00:26.074Z,3.40
2017-11-06T14:02:53.597Z,4.03
2017-11-06T14:05:21.098Z,3.37
2017-11-06T14:07:48.600Z,4.17
2017-11-06T14:10:16.118Z,4.10
2017-11-06T14:12:43.629Z,3.50
2017-11-06T14:15:11.154Z,4.27
2017-11-06T14:17:39.420Z,4.07
2017-11-06T14:20:07.685Z,3.20
2017-11-06T14:22:37.150Z,3.40
2017-11-06T14:25:04.637Z,4.33
2017-11-06T14:27:32.161Z,3.23
2017-11-06T14:30:00.600Z,3.57
2017-11-06T14:32:29.832Z,3.47
2017-11-06T14:34:57.358Z,3.63
2017-11-06T14:37:25.622Z,3.23
2017-11-06T14:39:53.913Z,4.40
2017-11-06T14:42:22.177Z,4.20
2017-11-06T14:44:50.630Z,3.43
2017-11-06T14:47:18.146Z,5.63
2017-11-06T14:49:45.638Z,4.67
2017-11-06T14:52:13.166Z,6.00
2017-11-06T14:54:40.657Z,4.20
2017-11-06T14:57:08.155Z,5.30
2017-11-06T14:59:35.678Z,3.03
2017-11-06T15:02:04.122Z,4.10
2017-11-06T15:04:31.650Z,3.23
2017-11-06T15:06:59.151Z,4.30
2017-11-06T15:09:26.654Z,3.53
2017-11-06T15:11:54.950Z,3.93
2017-11-06T15:14:22.451Z,3.43
2017-11-06T15:16:49.986Z,3.47
2017-11-06T15:19:18.455Z,4.50
2017-11-06T15:21:45.986Z,3.00
2017-11-06T15:24:13.514Z,4.73
2017-11-06T15:26:41.014Z,3.07
2017-11-06T15:29:08.533Z,4.77
2017-11-06T15:31:36.036Z,3.43
2017-11-06T15:34:03.574Z,3.40
2017-11-06T15:36:31.074Z,3.70
2017-11-06T15:38:58.569Z,3.87
2017-11-06T15:41:26.853Z,4.73
2017-11-06T15:43:55.122Z,3.77
2017-11-06T15:46:23.401Z,4.23
2017-11-06T15:48:51.662Z,3.93
2017-11-06T15:51:19.182Z,4.03
2017-11-06T15:53:46.692Z,3.33
2017-11-06T15:56:14.957Z,3.60
2017-11-06T15:58:43.248Z,3.30
2017-11-06T16:01:11.514Z,4.73
2017-11-06T16:03:39.805Z,3.93
2017-11-06T16:06:07.298Z,4.57
2017-11-06T16:08:34.794Z,3.63
2017-11-06T16:11:03.073Z,3.87
2017-11-06T16:13:31.345Z,4.37
2017-11-06T16:15:59.634Z,3.60
2017-11-06T16:18:28.109Z,4.30
2017-11-06T16:20:56.380Z,2.97
2017-11-06T16:23:24.666Z,3.50
2017-11-06T16:25:52.930Z,2.80
2017-11-06T16:28:21.213Z,4.70
2017-11-06T16:30:49.474Z,3.70
2017-11-06T16:33:18.677Z,3.20
2017-11-06T16:35:46.969Z,3.23
2017-11-06T16:38:14.466Z,3.33
2017-11-06T16:40:41.996Z,4.73
2017-11-06T16:43:09.502Z,3.87
2017-11-06T16:45:37.023Z,2.70
2017-11-06T16:48:04.526Z,3.50
2017-11-06T16:50:32.789Z,3.63
2017-11-06T16:53:00.303Z,3.30
2017-11-06T16:55:27.802Z,3.53
2017-11-06T16:57:57.262Z,3.50
2017-11-06T17:00:24.758Z,3.40
2017-11-06T17:02:52.285Z,3.03
2017-11-06T17:05:19.786Z,3.40
2017-11-06T17:07:48.055Z,3.67
2017-11-06T17:10:15.574Z,3.13
2017-11-06T17:12:43.876Z,3.47
2017-11-06T17:15:11.413Z,3.33
2017-11-06T17:17:38.922Z,4.87
2017-11-06T17:20:07.183Z,3.77
2017-11-06T17:22:35.478Z,3.40
2017-11-06T17:25:03.746Z,2.83
2017-11-06T17:27:32.038Z,4.17
2017-11-06T17:30:00.487Z,3.30
2017-11-06T17:32:27.988Z,4.67
2017-11-06T17:34:55.510Z,3.10
2017-11-06T17:37:23.777Z,3.00
2017-11-06T17:39:52.058Z,3.40
2017-11-06T17:42:20.339Z,3.53
2017-11-06T17:44:48.634Z,4.60
2017-11-06T17:47:16.133Z,3.90
2017-11-06T17:49:43.630Z,2.70
2017-11-06T17:52:11.921Z,3.50
2017-11-06T17:54:39.426Z,2.93
2017-11-06T17:57:08.891Z,3.23
2017-11-06T17:59:36.381Z,3.43
2017-11-06T18:02:03.886Z,3.80
2017-11-06T18:04:31.410Z,4.50
2017-11-06T18:06:58.909Z,3.83
2017-11-06T18:09:26.425Z,3.97
2017-11-06T18:11:53.925Z,3.30
2017-11-06T18:14:21.437Z,3.37
2017-11-06T18:16:48.937Z,3.80
2017-11-06T18:19:16.439Z,3.53
2017-11-06T18:21:43.976Z,2.97
2017-11-06T18:24:11.506Z,3.40
2017-11-06T18:26:39.030Z,3.13
2017-11-06T18:29:07.322Z,4.17
2017-11-06T18:31:35.605Z,2.80
2017-11-06T18:34:03.866Z,3.50
2017-11-06T18:36:32.126Z,5.03
2017-11-06T18:38:59.648Z,3.43
2017-11-06T18:41:27.150Z,3.00
2017-11-06T18:43:55.457Z,3.23
2017-11-06T18:46:22.982Z,3.03
2017-11-06T18:48:51.271Z,3.47
2017-11-06T18:51:19.533Z,3.43
2017-11-06T18:53:47.036Z,3.10
2017-11-06T18:56:14.572Z,2.90
2017-11-06T18:58:42.128Z,3.07
2017-11-06T19:01:09.810Z,3.40
2017-11-06T19:03:38.524Z,5.80
2017-11-06T19:06:06.078Z,3.00
2017-11-06T19:08:33.598Z,2.73
2017-11-06T19:11:01.102Z,3.70
2017-11-06T19:13:28.624Z,3.40
2017-11-06T19:15:56.123Z,3.27
2017-11-06T19:18:23.625Z,2.57
2017-11-06T19:20:51.144Z,3.30
2017-11-06T19:23:18.647Z,3.37
2017-11-06T19:25:46.178Z,2.90
2017-11-06T19:28:14.450Z,2.57
2017-11-06T19:30:42.743Z,3.40
2017-11-06T19:33:10.243Z,2.57
2017-11-06T19:35:37.766Z,2.90
2017-11-06T19:38:05.278Z,3.23
2017-11-06T19:40:34.748Z,2.97
2017-11-06T19:43:02.296Z,3.30
2017-11-06T19:45:29.916Z,2.63
2017-11-06T19:47:58.188Z,2.57
2017-11-06T19:50:26.512Z,3.77
2017-11-06T19:52:54.015Z,3.23
2017-11-06T19:55:22.313Z,3.53
2017-11-06T19:57:50.775Z,2.40
2017-11-06T20:00:19.062Z,3.03
2017-11-06T20:02:47.333Z,2.23
2017-11-06T20:05:15.618Z,5.13
2017-11-06T20:07:43.168Z,2.50
2017-11-06T20:10:11.439Z,3.03
2017-11-06T20:12:39.728Z,2.33
2017-11-06T20:15:07.225Z,2.70
2017-11-06T20:17:34.725Z,4.17
2017-11-06T20:20:03.011Z,2.80
2017-11-06T20:22:30.522Z,2.53
2017-11-06T20:24:58.410Z,2.80
2017-11-06T20:27:25.935Z,2.60
2017-11-06T20:29:53.459Z,4.00
2017-11-06T20:32:21.000Z,6.70
2017-11-06T20:34:49.286Z,6.33
2017-11-06T20:37:16.787Z,2.50
2017-11-06T20:39:45.310Z,4.83
2017-11-06T20:42:13.574Z,6.67
2017-11-06T20:44:41.850Z,5.73
2017-11-06T20:47:10.149Z,5.70
2017-11-06T20:49:37.688Z,4.00
2017-11-06T20:52:05.983Z,4.10
2017-11-06T20:54:33.515Z,4.00
2017-11-06T20:57:01.781Z,3.37
2017-11-06T20:59:31.317Z,6.30
2017-11-06T21:01:58.829Z,6.40
2017-11-06T21:04:26.354Z,3.60
2017-11-06T21:06:53.853Z,3.60
2017-11-06T21:09:21.374Z,2.63
2017-11-06T21:11:48.881Z,5.70
2017-11-06T21:14:17.161Z,4.47
2017-11-06T21:16:45.456Z,6.70
2017-11-06T21:19:12.986Z,4.90
2017-11-06T21:21:41.273Z,6.10
2017-11-06T21:24:09.533Z,6.83
2017-11-06T21:26:37.794Z,4.40
2017-11-06T21:29:05.323Z,2.27
2017-11-06T21:31:33.765Z,5.10
2017-11-06T21:34:02.051Z,2.03
2017-11-06T21:36:29.545Z,2.77
2017-11-06T21:38:57.066Z,2.50
2017-11-06T21:41:24.573Z,3.07
2017-11-06T21:43:52.092Z,3.43
2017-11-06T21:46:19.618Z,5.83
2017-11-06T21:48:47.890Z,2.50
2017-11-06T21:51:16.154Z,3.73
2017-11-06T21:53:44.445Z,2.73
2017-11-06T21:56:12.709Z,3.70
2017-11-06T21:58:41.002Z,3.17
2017-11-06T22:01:09.276Z,3.00
2017-11-06T22:03:37.562Z,3.63
2017-11-06T22:06:05.079Z,2.40
2017-11-06T22:08:32.606Z,1.70
2017-11-06T22:11:01.064Z,5.20
2017-11-06T22:13:28.587Z,2.37
2017-11-06T22:15:56.853Z,2.10
2017-11-06T22:18:25.142Z,2.83
2017-11-06T22:20:53.393Z,2.20
2017-11-06T22:23:20.921Z,2.70
2017-11-06T22:25:48.418Z,2.20
2017-11-06T22:28:17.673Z,2.17
2017-11-06T22:30:45.164Z,4.40
2017-11-06T22:33:13.092Z,1.97
2017-11-06T22:35:40.586Z,2.17
2017-11-06T22:38:08.112Z,2.20
2017-11-06T22:40:35.602Z,4.37
2017-11-06T22:43:03.130Z,2.13
2017-11-06T22:45:30.630Z,2.37
2017-11-06T22:47:58.894Z,2.87
2017-11-06T22:50:27.223Z,2.33
2017-11-06T22:52:54.988Z,2.10
2017-11-06T22:55:22.775Z,6.33
2017-11-06T22:57:50.559Z,2.13
2017-11-06T23:00:20.018Z,2.33
2017-11-06T23:02:48.025Z,2.13
2017-11-06T23:05:15.953Z,2.17
2017-11-06T23:07:43.921Z,3.33
2017-11-06T23:10:12.415Z,2.17
2017-11-06T23:12:40.320Z,1.60
2017-11-06T23:15:08.593Z,2.10
2017-11-06T23:17:39.571Z,2.20
2017-11-06T23:20:07.083Z,2.23
2017-11-06T23:22:34.607Z,2.33
2017-11-06T23:25:02.106Z,2.03
2017-11-06T23:27:30.366Z,4.63
2017-11-06T23:29:59.830Z,1.90
2017-11-06T23:32:27.355Z,2.57
2017-11-06T23:34:55.626Z,2.17
2017-11-06T23:37:24.818Z,2.40
2017-11-06T23:39:53.081Z,3.17
2017-11-06T23:42:20.598Z,1.80
2017-11-06T23:44:48.106Z,2.27
2017-11-06T23:47:16.374Z,2.40
2017-11-06T23:49:44.670Z,1.70
2017-11-06T23:52:12.937Z,2.33
2017-11-06T23:54:41.214Z,2.07
2017-11-06T23:57:09.490Z,2.00
2017-11-06T23:59:37.762Z,1.80
